Time;durP1;ratioP1;P1;durP2;ratioP2;P2;SDS_P1;SDS_P2;PMS_P1;PMS_P2;Temp;Humidity;BMP_temperature;BMP_pressure;BME280_temperature;BME280_humidity;BME280_pressure;Samples;Min_cycle;Max_cycle;Signal;HPM_P1;HPM_P2
2023/06/12 00:00:29;;;;;;;2.85;1.92;;;;;;;16.72;77.78;96096.41;5054988;28;20220;-68
2023/06/12 00:02:57;;;;;;;1.85;1.42;;;;;;;16.62;78.76;96097.94;5058194;28;20632;-66
2023/06/12 00:05:27;;;;;;;3.30;1.55;;;;;;;16.74;78.66;96106.88;5058990;28;20224;-68
2023/06/12 00:07:57;;;;;;;2.83;1.45;;;;;;;16.74;78.60;96105.00;5058859;28;21125;-66
2023/06/12 00:10:25;;;;;;;2.90;1.60;;;;;;;16.88;78.64;96100.38;5059245;28;20226;-65
2023/06/12 00:12:52;;;;;;;2.75;1.92;;;;;;;16.65;78.78;96105.50;5059322;28;20767;-68
2023/06/12 00:15:18;;;;;;;4.15;1.73;;;;;;;16.53;80.23;96099.25;5059862;28;20655;-66
2023/06/12 00:17:46;;;;;;;4.25;1.95;;;;;;;16.50;80.65;96105.00;5058634;28;20200;-65
2023/06/12 00:20:12;;;;;;;2.47;1.50;;;;;;;16.63;80.40;96107.56;5058752;28;20651;-68
2023/06/12 00:22:40;;;;;;;2.08;1.67;;;;;;;16.41;81.30;96108.13;5059308;28;20232;-68
2023/06/12 00:25:07;;;;;;;2.17;1.60;;;;;;;16.40;81.44;96110.00;5059286;28;21461;-67
2023/06/12 00:27:35;;;;;;;2.80;1.30;;;;;;;16.65;80.36;96105.50;5058527;28;21077;-66
2023/06/12 00:30:01;;;;;;;2.83;1.67;;;;;;;16.57;80.52;96103.09;5058690;28;20228;-68
2023/06/12 00:32:28;;;;;;;2.95;1.60;;;;;;;16.65;80.19;96100.19;5059611;28;20206;-67
2023/06/12 00:34:55;;;;;;;1.88;1.35;;;;;;;16.61;80.05;96113.09;5058843;28;20201;-69
2023/06/12 00:37:24;;;;;;;3.20;2.17;;;;;;;16.49;80.67;96112.16;5058746;28;20208;-69
2023/06/12 00:39:50;;;;;;;2.08;1.23;;;;;;;16.48;80.56;96104.41;5058765;28;20762;-68
2023/06/12 00:42:17;;;;;;;2.42;1.60;;;;;;;16.34;81.43;96100.19;5058539;28;20200;-68
2023/06/12 00:44:45;;;;;;;2.05;1.40;;;;;;;16.44;81.37;96105.88;5058842;28;20289;-68
2023/06/12 00:47:11;;;;;;;2.72;1.63;;;;;;;16.43;81.42;96104.22;5059015;28;20208;-68
2023/06/12 00:49:38;;;;;;;6.18;2.25;;;;;;;16.43;81.07;96106.88;5058334;28;20295;-67
2023/06/12 00:52:06;;;;;;;4.88;2.03;;;;;;;16.48;81.68;96099.06;5058143;28;20588;-65
2023/06/12 00:54:33;;;;;;;2.22;1.60;;;;;;;16.18;83.59;96094.59;5059157;28;20387;-68
2023/06/12 00:56:59;;;;;;;3.30;1.73;;;;;;;15.96;85.24;96095.91;5058489;28;20262;-69
2023/06/12 00:59:26;;;;;;;2.35;1.60;;;;;;;15.94;85.82;96096.13;5057553;28;20286;-68
2023/06/12 01:01:54;;;;;;;2.70;1.73;;;;;;;15.98;86.22;96086.72;5058142;28;20212;-66
2023/06/12 01:04:20;;;;;;;2.88;1.55;;;;;;;15.93;86.58;96091.84;5058778;28;21022;-64
2023/06/12 01:06:54;;;;;;;2.42;1.48;;;;;;;16.08;86.33;96095.03;5058095;28;20208;-67
2023/06/12 01:09:33;;;;;;;3.08;2.03;;;;;;;16.05;85.81;96089.31;5057339;28;20681;-66
2023/06/12 01:12:02;;;;;;;3.60;1.88;;;;;;;16.14;85.17;96091.53;5058566;28;20296;-69
2023/06/12 01:14:28;;;;;;;1.98;1.58;;;;;;;16.02;85.71;96087.91;5057809;28;20193;-67
2023/06/12 01:16:58;;;;;;;2.40;1.50;;;;;;;16.06;85.63;96090.97;5058139;28;20211;-64
2023/06/12 01:19:24;;;;;;;1.98;1.52;;;;;;;16.16;84.97;96094.78;5057538;28;20240;-65
2023/06/12 01:21:54;;;;;;;3.72;2.10;;;;;;;16.20;85.14;96098.63;5058022;28;20212;-68
2023/06/12 01:24:42;;;;;;;13.63;1.70;;;;;;;16.03;85.83;96092.19;5058302;28;20409;-68
2023/06/12 01:27:33;;;;;;;1.98;1.50;;;;;;;16.11;85.92;96102.56;5058206;28;20208;-68
2023/06/12 01:30:38;;;;;;;5.85;2.22;;;;;;;15.92;86.20;96098.22;5040662;28;20228;-67
2023/06/12 01:33:08;;;;;;;1.75;1.25;;;;;;;15.81;87.05;96099.88;5052958;28;20208;-67
2023/06/12 01:35:40;;;;;;;2.97;1.92;;;;;;;15.77;87.66;96104.00;5058032;28;20207;-68
2023/06/12 01:38:10;;;;;;;3.25;1.83;;;;;;;15.84;87.45;96099.47;5057358;28;20228;-68
2023/06/12 01:40:39;;;;;;;4.10;1.88;;;;;;;15.86;87.85;96106.22;5057835;28;20252;-69
2023/06/12 01:43:06;;;;;;;3.00;1.65;;;;;;;15.91;86.79;96101.88;5058304;28;20653;-67
2023/06/12 01:45:32;;;;;;;5.05;2.20;;;;;;;15.78;87.29;96095.81;5057523;28;20224;-67
2023/06/12 01:47:59;;;;;;;4.13;2.45;;;;;;;15.67;87.50;96099.16;5057005;28;20208;-66
2023/06/12 01:50:27;;;;;;;2.72;1.77;;;;;;;15.72;87.34;96090.53;5057384;28;20217;-66
2023/06/12 01:52:53;;;;;;;2.92;1.73;;;;;;;15.53;88.85;96086.13;5057441;28;20200;-67
2023/06/12 01:55:21;;;;;;;3.00;1.65;;;;;;;15.56;89.25;96080.41;5057604;28;20552;-64
2023/06/12 01:57:48;;;;;;;3.67;1.90;;;;;;;15.51;89.94;96082.88;5056492;28;20258;-68
2023/06/12 02:00:15;;;;;;;2.65;1.83;;;;;;;15.64;89.46;96082.81;5057069;28;20224;-67
2023/06/12 02:02:43;;;;;;;2.33;2.00;;;;;;;15.54;90.21;96082.44;5057057;28;20216;-66
2023/06/12 02:05:10;;;;;;;1.88;1.38;;;;;;;15.70;89.26;96087.28;5057054;28;20236;-68
2023/06/12 02:07:38;;;;;;;4.45;2.05;;;;;;;15.70;89.13;96079.31;5057271;28;20215;-66
2023/06/12 02:10:07;;;;;;;3.15;1.50;;;;;;;15.62;89.92;96074.25;5057427;28;20237;-67
2023/06/12 02:12:33;;;;;;;3.35;1.65;;;;;;;15.54;90.23;96071.81;5057176;28;20210;-68
2023/06/12 02:15:00;;;;;;;5.18;2.10;;;;;;;15.57;89.97;96074.06;5056663;28;20216;-68
2023/06/12 02:17:26;;;;;;;2.38;1.33;;;;;;;15.71;89.02;96071.13;5056413;28;20207;-68
2023/06/12 02:19:53;;;;;;;1.38;1.17;;;;;;;15.58;89.01;96073.84;5056714;28;20243;-66
2023/06/12 02:22:19;;;;;;;3.53;1.67;;;;;;;15.64;88.03;96069.53;5057301;28;20200;-68
2023/06/12 02:24:47;;;;;;;2.22;1.42;;;;;;;15.43;89.57;96070.66;5055833;28;20205;-69
2023/06/12 02:27:13;;;;;;;3.60;2.13;;;;;;;15.34;90.75;96073.75;5056449;28;20226;-64
2023/06/12 02:29:40;;;;;;;2.28;1.45;;;;;;;15.38;90.91;96072.31;5056751;28;20250;-68
2023/06/12 02:32:07;;;;;;;4.43;3.10;;;;;;;15.41;90.84;96070.06;5056293;28;20700;-67
2023/06/12 02:34:33;;;;;;;2.45;1.90;;;;;;;15.51;90.30;96075.72;5056988;28;20237;-66
2023/06/12 02:37:00;;;;;;;3.38;1.90;;;;;;;15.49;89.98;96069.81;5057011;28;20210;-65
2023/06/12 02:39:26;;;;;;;4.13;2.30;;;;;;;15.48;89.57;96070.03;5055735;28;20211;-68
2023/06/12 02:41:54;;;;;;;1.92;1.70;;;;;;;15.59;88.46;96070.19;5056413;28;20660;-69
2023/06/12 02:44:20;;;;;;;1.10;1.02;;;;;;;15.50;89.48;96073.28;5053751;28;20204;-68
2023/06/12 02:46:52;;;;;;;2.83;1.63;;;;;;;15.24;91.58;96076.84;5055891;28;20243;-68
2023/06/12 02:49:19;;;;;;;1.98;1.42;;;;;;;14.94;94.42;96074.03;5055652;28;20200;-68
2023/06/12 02:51:45;;;;;;;2.70;1.77;;;;;;;14.81;95.94;96076.72;5057176;28;20588;-69
2023/06/12 02:54:12;;;;;;;3.63;1.63;;;;;;;14.76;96.49;96072.00;5057232;28;20227;-68
2023/06/12 02:56:41;;;;;;;1.95;1.45;;;;;;;14.73;96.38;96079.59;5056504;28;20215;-68
2023/06/12 02:59:10;;;;;;;5.68;1.58;;;;;;;14.82;96.99;96079.16;5055171;28;20681;-66
2023/06/12 03:01:41;;;;;;;1.25;1.10;;;;;;;14.79;97.28;96078.75;5056003;28;20787;-65
2023/06/12 03:04:09;;;;;;;3.88;1.52;;;;;;;14.76;97.10;96081.81;5056420;28;20210;-65
2023/06/12 03:06:36;;;;;;;5.20;2.20;;;;;;;14.71;97.22;96079.81;5055827;28;20775;-68
2023/06/12 03:09:03;;;;;;;2.92;1.55;;;;;;;14.79;97.18;96076.94;5055571;28;20748;-65
2023/06/12 03:11:30;;;;;;;3.42;1.80;;;;;;;15.02;94.32;96081.75;5056406;28;21027;-68
2023/06/12 03:13:56;;;;;;;4.78;1.55;;;;;;;14.69;95.01;96084.47;5055928;28;20211;-67
2023/06/12 03:16:24;;;;;;;2.47;1.80;;;;;;;14.76;97.06;96082.63;5056526;28;20197;-68
2023/06/12 03:18:51;;;;;;;3.17;1.92;;;;;;;14.63;97.90;96081.03;5055631;28;20589;-68
2023/06/12 03:21:17;;;;;;;3.40;1.80;;;;;;;14.63;98.38;96075.72;5055562;28;20716;-65
2023/06/12 03:23:44;;;;;;;3.45;2.35;;;;;;;14.62;98.73;96087.34;5056122;28;20201;-65
2023/06/12 03:26:10;;;;;;;2.42;1.60;;;;;;;14.94;96.16;96085.47;5056313;28;20220;-68
2023/06/12 03:28:36;;;;;;;3.97;1.88;;;;;;;15.05;95.51;96082.16;5055542;28;20204;-67
2023/06/12 03:31:03;;;;;;;5.13;3.22;;;;;;;15.15;94.64;96090.53;5055342;28;20216;-65
2023/06/12 03:33:31;;;;;;;3.25;2.00;;;;;;;15.27;93.19;96086.22;5055783;28;20204;-68
2023/06/12 03:35:57;;;;;;;2.40;1.55;;;;;;;14.95;95.56;96097.69;5057130;28;20207;-68
2023/06/12 03:38:24;;;;;;;2.03;1.60;;;;;;;14.99;95.76;96082.19;5059775;28;20708;-68
2023/06/12 03:40:50;;;;;;;2.35;1.40;;;;;;;14.87;96.50;96084.66;5059207;28;20228;-66
2023/06/12 03:43:17;;;;;;;2.47;1.80;;;;;;;14.93;97.24;96091.81;5059891;28;20211;-66
2023/06/12 03:45:43;;;;;;;3.95;2.40;;;;;;;14.98;96.24;96085.88;5059896;28;20219;-65
2023/06/12 03:48:10;;;;;;;2.60;1.55;;;;;;;15.01;96.19;96091.56;5059113;28;20209;-65
2023/06/12 03:50:38;;;;;;;3.65;1.65;;;;;;;15.28;95.06;96093.16;5059548;28;20220;-69
2023/06/12 03:53:05;;;;;;;3.15;2.50;;;;;;;15.12;95.06;96096.25;5060370;28;20205;-69
2023/06/12 03:55:32;;;;;;;4.22;1.80;;;;;;;14.97;97.26;96095.66;5060126;28;20193;-65
2023/06/12 03:57:58;;;;;;;4.18;2.40;;;;;;;15.06;95.50;96091.78;5058564;28;20211;-68
2023/06/12 04:00:25;;;;;;;2.88;1.42;;;;;;;14.92;97.51;96100.78;5059327;28;20247;-64
2023/06/12 04:02:54;;;;;;;2.05;1.55;;;;;;;15.04;98.10;96095.66;5059489;28;20236;-66
2023/06/12 04:05:21;;;;;;;3.83;2.25;;;;;;;15.19;97.35;96099.69;5059426;28;20287;-66
2023/06/12 04:07:49;;;;;;;3.63;2.10;;;;;;;15.23;96.82;96100.94;5058855;28;20230;-66
2023/06/12 04:10:16;;;;;;;6.55;2.55;;;;;;;15.37;96.16;96102.53;5059763;28;20217;-68
2023/06/12 04:12:42;;;;;;;3.00;1.90;;;;;;;15.54;95.68;96103.69;5059472;28;20208;-68
2023/06/12 04:15:10;;;;;;;2.72;1.50;;;;;;;15.57;95.86;96098.78;5058731;28;20200;-69
2023/06/12 04:17:36;;;;;;;2.17;1.40;;;;;;;15.43;98.06;96097.19;5059407;28;20254;-68
2023/06/12 04:20:04;;;;;;;3.15;1.85;;;;;;;15.57;97.89;96105.94;5059119;28;20232;-67
2023/06/12 04:22:30;;;;;;;1.95;1.58;;;;;;;15.70;97.11;96108.53;5059310;28;20203;-65
2023/06/12 04:25:01;;;;;;;2.58;1.83;;;;;;;15.71;97.97;96110.19;5059327;28;20204;-69
2023/06/12 04:27:29;;;;;;;4.10;1.65;;;;;;;15.73;97.37;96113.44;5058156;28;20282;-68
2023/06/12 04:29:57;;;;;;;3.92;2.00;;;;;;;15.91;97.01;96109.88;5058620;28;20591;-67
2023/06/12 04:32:24;;;;;;;3.00;1.80;;;;;;;16.01;96.71;96114.69;5058947;28;20256;-68
2023/06/12 04:34:50;;;;;;;3.60;2.22;;;;;;;16.03;96.02;96110.00;5058964;28;20287;-67
2023/06/12 04:37:18;;;;;;;3.88;1.90;;;;;;;16.20;95.27;96108.47;5058630;28;20197;-68
2023/06/12 04:39:45;;;;;;;2.38;1.77;;;;;;;16.23;94.70;96114.16;5058645;28;20341;-66
2023/06/12 04:42:16;;;;;;;2.80;2.10;;;;;;;16.29;94.81;96110.66;5058478;28;20193;-67
2023/06/12 04:44:46;;;;;;;2.92;2.00;;;;;;;16.37;94.64;96112.25;5059398;28;20235;-67
2023/06/12 04:47:14;;;;;;;4.07;2.40;;;;;;;16.37;95.47;96113.09;5057432;28;20220;-67
2023/06/12 04:49:43;;;;;;;2.10;1.80;;;;;;;16.44;94.09;96116.50;5058403;28;20228;-67
2023/06/12 04:52:12;;;;;;;4.45;2.30;;;;;;;16.62;94.16;96113.91;5058565;28;20201;-66
2023/06/12 04:54:41;;;;;;;4.30;2.42;;;;;;;16.78;94.15;96122.16;5059181;28;20198;-68
2023/06/12 04:57:12;;;;;;;6.00;2.90;;;;;;;16.89;93.41;96118.81;5058593;28;20208;-68
2023/06/12 04:59:40;;;;;;;3.10;2.03;;;;;;;16.93;92.70;96120.00;5058172;28;20254;-68
2023/06/12 05:02:08;;;;;;;4.57;2.35;;;;;;;16.97;93.26;96126.50;5058825;28;20684;-68
2023/06/12 05:04:36;;;;;;;4.45;1.95;;;;;;;16.96;92.39;96130.19;5058675;28;20236;-67
2023/06/12 05:07:04;;;;;;;3.05;2.03;;;;;;;17.05;92.11;96134.22;5058176;28;20224;-68
2023/06/12 05:09:31;;;;;;;3.25;1.90;;;;;;;17.14;93.23;96127.56;5057721;28;20210;-66
2023/06/12 05:12:00;;;;;;;3.45;2.33;;;;;;;17.14;93.22;96127.56;5058172;28;20212;-67
2023/06/12 05:14:27;;;;;;;2.60;2.00;;;;;;;17.27;92.08;96128.31;5058729;28;20201;-66
2023/06/12 05:16:55;;;;;;;3.40;2.00;;;;;;;17.39;92.31;96126.53;5058061;28;20208;-66
2023/06/12 05:19:22;;;;;;;3.42;2.00;;;;;;;17.43;91.84;96127.72;5057117;28;20266;-66
2023/06/12 05:21:49;;;;;;;6.25;2.53;;;;;;;17.45;91.57;96130.97;5058181;28;20557;-67
2023/06/12 05:24:15;;;;;;;2.72;1.77;;;;;;;17.73;90.93;96139.25;5059181;28;20201;-67
2023/06/12 05:26:42;;;;;;;2.08;1.83;;;;;;;17.76;91.59;96138.81;5057668;28;20228;-67
2023/06/12 05:29:08;;;;;;;4.45;2.75;;;;;;;17.76;91.79;96150.28;5057410;28;20209;-64
2023/06/12 05:31:35;;;;;;;3.05;2.10;;;;;;;17.85;90.09;96142.81;5057730;28;20220;-68
2023/06/12 05:34:02;;;;;;;5.70;2.50;;;;;;;18.00;91.33;96140.56;5057878;28;20204;-68
2023/06/12 05:36:29;;;;;;;3.50;2.08;;;;;;;18.01;90.31;96147.50;5053760;28;20207;-65
2023/06/12 05:38:56;;;;;;;7.75;1.85;;;;;;;18.01;89.99;96148.34;5057114;28;20203;-67
2023/06/12 05:41:22;;;;;;;4.05;2.47;;;;;;;18.08;90.85;96142.94;5056725;28;20301;-68
2023/06/12 05:43:49;;;;;;;3.42;2.50;;;;;;;18.09;89.75;96140.03;5057034;28;20212;-68
2023/06/12 05:46:15;;;;;;;4.47;2.15;;;;;;;18.33;90.45;96140.97;5057033;28;20225;-67
2023/06/12 05:48:42;;;;;;;3.00;2.35;;;;;;;18.40;89.55;96148.63;5056466;28;20208;-64
2023/06/12 05:51:10;;;;;;;3.15;1.60;;;;;;;18.60;90.20;96146.50;5056652;28;20235;-66
2023/06/12 05:53:36;;;;;;;5.15;2.45;;;;;;;18.49;91.21;96155.28;5056394;28;20200;-68
2023/06/12 05:56:03;;;;;;;4.72;2.30;;;;;;;18.61;91.08;96150.81;5056794;28;20699;-66
2023/06/12 05:58:29;;;;;;;3.72;1.98;;;;;;;18.60;88.37;96157.19;5056115;28;20201;-64
2023/06/12 06:00:56;;;;;;;4.55;2.92;;;;;;;18.64;87.13;96145.00;5054449;28;20231;-67
2023/06/12 06:03:24;;;;;;;6.38;2.38;;;;;;;18.64;90.46;96150.34;5057081;28;20289;-66
2023/06/12 06:05:51;;;;;;;3.33;2.38;;;;;;;18.61;87.75;96144.63;5056177;28;20201;-64
2023/06/12 06:08:18;;;;;;;2.97;1.80;;;;;;;18.77;87.79;96155.47;5056065;28;20204;-67
2023/06/12 06:10:45;;;;;;;3.95;2.85;;;;;;;18.71;85.79;96153.75;5056891;28;20233;-67
2023/06/12 06:13:12;;;;;;;3.70;2.53;;;;;;;18.93;86.16;96146.81;5056723;28;20650;-69
2023/06/12 06:15:39;;;;;;;12.63;3.30;;;;;;;18.88;84.58;96148.56;5056599;28;20216;-65
2023/06/12 06:18:05;;;;;;;5.25;2.55;;;;;;;19.09;87.40;96143.47;5056401;28;20208;-66
2023/06/12 06:20:33;;;;;;;4.72;2.30;;;;;;;19.08;85.43;96149.84;5056080;28;20239;-65
2023/06/12 06:23:00;;;;;;;4.20;2.40;;;;;;;19.35;85.46;96148.38;5057238;28;20675;-68
2023/06/12 06:25:29;;;;;;;5.28;2.45;;;;;;;19.46;83.98;96152.88;5056840;28;20200;-67
2023/06/12 06:27:55;;;;;;;3.20;2.40;;;;;;;19.45;84.61;96157.44;5055933;28;20239;-68
2023/06/12 06:30:22;;;;;;;4.47;2.03;;;;;;;19.47;85.65;96149.19;5055989;28;20335;-65
2023/06/12 06:32:49;;;;;;;3.50;2.13;;;;;;;19.68;85.15;96147.53;5056406;28;20690;-68
2023/06/12 06:35:16;;;;;;;4.43;2.15;;;;;;;19.74;81.71;96151.94;5056384;28;20262;-65
2023/06/12 06:37:42;;;;;;;2.03;1.73;;;;;;;19.75;79.89;96158.88;5055924;28;20211;-67
2023/06/12 06:40:10;;;;;;;3.40;1.73;;;;;;;19.78;78.33;96149.59;5055611;28;20220;-68
2023/06/12 06:42:38;;;;;;;4.03;2.45;;;;;;;19.88;79.69;96152.47;5055154;28;20201;-65
2023/06/12 06:45:05;;;;;;;4.22;2.08;;;;;;;19.94;79.79;96156.91;5055843;28;20205;-63
2023/06/12 06:47:31;;;;;;;3.80;2.67;;;;;;;20.03;77.09;96153.63;5056013;28;20224;-67
2023/06/12 06:49:58;;;;;;;3.40;2.42;;;;;;;20.04;75.55;96163.28;5055296;28;20224;-66
2023/06/12 06:52:24;;;;;;;3.47;1.85;;;;;;;20.09;75.35;96167.94;5055537;28;20201;-66
2023/06/12 06:54:51;;;;;;;3.80;1.85;;;;;;;20.03;74.79;96172.34;5056297;28;20608;-68
2023/06/12 06:57:18;;;;;;;4.10;2.28;;;;;;;20.22;76.04;96166.59;5055504;28;20576;-67
2023/06/12 06:59:46;;;;;;;3.30;1.90;;;;;;;20.36;72.17;96170.63;5055234;28;20362;-64
2023/06/12 07:02:12;;;;;;;4.85;1.83;;;;;;;20.09;72.27;96173.28;5055488;28;20202;-66
2023/06/12 07:04:39;;;;;;;2.33;2.00;;;;;;;20.18;74.17;96166.53;5055871;28;20215;-70
2023/06/12 07:07:06;;;;;;;5.15;2.40;;;;;;;20.41;75.67;96167.25;5054611;28;20269;-66
2023/06/12 07:09:32;;;;;;;3.83;2.17;;;;;;;20.75;74.32;96163.59;5055717;28;20200;-66
2023/06/12 07:11:59;;;;;;;3.53;2.03;;;;;;;21.01;74.49;96163.81;5055634;28;20200;-67
2023/06/12 07:14:25;;;;;;;5.57;2.85;;;;;;;21.04;72.36;96164.13;5055221;28;20208;-66
2023/06/12 07:16:53;;;;;;;3.13;2.08;;;;;;;21.12;72.49;96161.03;5055211;28;20192;-66
2023/06/12 07:19:20;;;;;;;25.80;2.40;;;;;;;21.31;73.41;96169.63;5054813;28;20212;-66
2023/06/12 07:21:48;;;;;;;2.63;1.75;;;;;;;21.20;69.76;96168.66;5056060;28;20224;-67
2023/06/12 07:24:17;;;;;;;8.80;2.45;;;;;;;21.39;70.44;96166.56;5055273;28;20657;-66
2023/06/12 07:26:43;;;;;;;2.50;1.67;;;;;;;21.43;67.73;96163.97;5056031;28;20220;-66
2023/06/12 07:29:10;;;;;;;5.60;2.72;;;;;;;21.30;64.26;96162.69;5055370;28;20246;-66
2023/06/12 07:31:37;;;;;;;5.03;2.08;;;;;;;21.45;66.09;96161.84;5055961;28;20252;-66
2023/06/12 07:34:05;;;;;;;4.25;2.28;;;;;;;21.64;64.48;96152.50;5056054;28;20586;-66
2023/06/12 07:36:35;;;;;;;2.72;1.80;;;;;;;21.51;62.73;96163.56;5055926;28;20205;-66
2023/06/12 07:39:01;;;;;;;3.35;1.77;;;;;;;21.79;65.19;96159.94;5051666;28;20192;-67
2023/06/12 07:41:28;;;;;;;3.28;1.98;;;;;;;21.60;61.32;96161.25;5053715;28;20224;-67
2023/06/12 07:43:55;;;;;;;3.88;1.95;;;;;;;21.85;63.81;96158.94;5052414;28;20578;-72
2023/06/12 07:46:21;;;;;;;4.10;2.20;;;;;;;21.91;64.26;96158.75;5052854;28;20200;-67
2023/06/12 07:48:48;;;;;;;4.45;2.38;;;;;;;22.20;66.63;96147.59;5053048;28;20438;-69
2023/06/12 07:51:16;;;;;;;2.80;1.80;;;;;;;22.18;64.27;96157.75;5052924;28;20223;-72
2023/06/12 07:53:42;;;;;;;3.05;2.05;;;;;;;22.22;65.77;96163.44;5053352;28;20232;-67
2023/06/12 07:56:09;;;;;;;3.20;2.15;;;;;;;22.17;65.19;96156.16;5053798;28;20204;-66
2023/06/12 07:58:36;;;;;;;3.13;2.22;;;;;;;22.27;60.41;96152.81;5053791;28;20692;-67
2023/06/12 08:01:04;;;;;;;2.78;1.67;;;;;;;22.30;62.42;96155.81;5052252;28;20266;-66
2023/06/12 08:03:31;;;;;;;3.22;2.10;;;;;;;22.74;62.57;96143.91;5052114;28;21761;-67
2023/06/12 08:05:58;;;;;;;3.17;1.90;;;;;;;22.52;58.30;96143.16;5052293;28;20205;-68
2023/06/12 08:08:26;;;;;;;4.40;2.30;;;;;;;22.69;54.49;96142.00;5053648;28;20220;-64
2023/06/12 08:10:53;;;;;;;4.13;1.80;;;;;;;22.53;54.90;96142.09;5050858;28;20231;-65
2023/06/12 08:13:20;;;;;;;4.10;2.13;;;;;;;22.83;57.68;96137.00;5053154;28;20204;-66
2023/06/12 08:15:46;;;;;;;1.63;1.33;;;;;;;22.89;53.66;96141.38;5053490;28;20227;-64
2023/06/12 08:18:13;;;;;;;3.13;2.00;;;;;;;22.80;54.67;96141.00;5053264;28;20201;-66
2023/06/12 08:20:40;;;;;;;5.22;1.90;;;;;;;22.83;54.69;96132.44;5053572;28;20236;-65
2023/06/12 08:23:06;;;;;;;2.83;1.58;;;;;;;22.78;53.67;96143.16;5055070;28;20212;-65
2023/06/12 08:25:34;;;;;;;2.55;1.77;;;;;;;22.97;54.43;96146.28;5055793;28;20204;-65
2023/06/12 08:28:01;;;;;;;3.50;1.55;;;;;;;23.02;53.72;96132.91;5056510;28;20221;-64
2023/06/12 08:30:28;;;;;;;3.30;2.13;;;;;;;23.26;56.15;96140.38;5055928;28;20270;-64
2023/06/12 08:32:55;;;;;;;8.75;1.80;;;;;;;23.14;52.10;96138.91;5056386;28;20204;-66
2023/06/12 08:35:22;;;;;;;3.38;2.03;;;;;;;23.07;51.94;96130.28;5057089;28;20196;-65
2023/06/12 08:37:48;;;;;;;3.92;1.75;;;;;;;23.25;52.07;96129.88;5056366;28;20694;-65
2023/06/12 08:40:15;;;;;;;4.93;1.77;;;;;;;23.35;52.68;96126.16;5056156;28;20220;-64
2023/06/12 08:42:49;;;;;;;3.95;1.65;;;;;;;23.65;54.31;96128.25;5057328;28;20320;-66
2023/06/12 08:45:17;;;;;;;3.65;2.38;;;;;;;23.52;51.51;96134.91;5057004;28;20273;-65
2023/06/12 08:47:48;;;;;;;5.95;2.25;;;;;;;23.83;52.00;96125.16;5055932;28;20277;-66
2023/06/12 08:50:16;;;;;;;4.05;2.15;;;;;;;23.47;46.08;96131.38;5056534;28;20220;-66
2023/06/12 08:52:44;;;;;;;2.60;1.67;;;;;;;23.24;48.03;96120.97;5057180;28;20316;-65
2023/06/12 08:55:14;;;;;;;2.13;1.50;;;;;;;23.53;44.71;96120.38;5057198;28;20211;-63
2023/06/12 08:57:41;;;;;;;2.78;1.63;;;;;;;23.36;45.28;96122.41;5056128;28;20200;-64
2023/06/12 09:00:13;;;;;;;3.58;1.90;;;;;;;23.59;48.78;96126.63;5056255;28;20252;-66
2023/06/12 09:02:45;;;;;;;4.43;1.80;;;;;;;23.85;48.77;96123.81;5056359;28;20724;-65
2023/06/12 09:05:15;;;;;;;3.65;1.80;;;;;;;23.89;48.37;96126.81;5056492;28;21118;-64
2023/06/12 09:07:44;;;;;;;4.22;1.80;;;;;;;23.98;47.08;96113.41;5055611;28;21181;-66
2023/06/12 09:10:11;;;;;;;3.85;2.40;;;;;;;23.75;44.66;96126.47;5056663;28;20232;-64
2023/06/12 09:12:42;;;;;;;5.32;2.00;;;;;;;23.98;47.83;96123.34;5056264;28;20208;-67
2023/06/12 09:15:11;;;;;;;3.22;2.05;;;;;;;23.98;48.10;96117.94;5056883;28;20296;-64
2023/06/12 09:17:40;;;;;;;2.45;1.63;;;;;;;24.18;50.67;96118.84;5055974;28;20195;-65
2023/06/12 09:20:08;;;;;;;2.13;1.55;;;;;;;24.09;48.28;96119.63;5056263;28;20228;-67
2023/06/12 09:22:38;;;;;;;3.42;1.80;;;;;;;23.90;49.11;96123.84;5055843;28;20227;-66
2023/06/12 09:25:07;;;;;;;3.45;1.73;;;;;;;23.71;45.45;96119.19;5057538;28;20265;-67
2023/06/12 09:27:41;;;;;;;3.63;1.80;;;;;;;23.95;47.92;96123.88;5055469;28;20216;-65
2023/06/12 09:30:10;;;;;;;2.53;1.40;;;;;;;24.40;49.84;96110.59;5055137;28;20223;-66
2023/06/12 09:32:37;;;;;;;2.75;1.80;;;;;;;24.51;44.77;96125.72;5055623;28;21048;-63
2023/06/12 09:35:04;;;;;;;2.67;1.60;;;;;;;24.15;44.27;96118.59;5055739;28;20196;-67
2023/06/12 09:37:32;;;;;;;13.73;2.05;;;;;;;24.14;43.93;96119.66;5054316;28;21194;-65
2023/06/12 09:40:10;;;;;;;3.33;1.25;;;;;;;24.33;44.49;96118.91;5053875;28;20333;-66
2023/06/12 09:42:37;;;;;;;3.28;1.70;;;;;;;24.28;45.77;96112.69;5054605;28;20315;-64
2023/06/12 09:45:16;;;;;;;2.45;1.58;;;;;;;24.58;42.91;96116.31;5055194;28;20239;-67
2023/06/12 09:47:45;;;;;;;1.90;1.25;;;;;;;24.62;43.82;96125.50;5054790;28;20228;-66
2023/06/12 09:50:12;;;;;;;3.30;1.75;;;;;;;24.73;44.02;96121.72;5055543;28;20216;-65
2023/06/12 09:52:41;;;;;;;2.40;1.50;;;;;;;24.76;42.95;96127.41;5055071;28;20859;-64
2023/06/12 09:55:09;;;;;;;1.80;1.30;;;;;;;24.90;42.81;96112.31;5054553;28;20567;-65
2023/06/12 09:57:36;;;;;;;1.90;1.40;;;;;;;24.89;43.42;96118.78;5055414;28;20587;-65
2023/06/12 10:00:07;;;;;;;6.00;1.55;;;;;;;24.91;44.86;96108.56;5053687;28;20339;-64
2023/06/12 10:02:37;;;;;;;3.38;1.75;;;;;;;24.83;42.72;96105.56;5052696;28;21054;-65
2023/06/12 10:05:07;;;;;;;2.00;1.67;;;;;;;24.95;45.02;96106.94;5054102;28;20257;-65
2023/06/12 10:07:39;;;;;;;2.30;1.27;;;;;;;24.89;40.09;96117.97;5055054;28;20231;-66
2023/06/12 10:10:08;;;;;;;3.63;1.80;;;;;;;24.90;39.34;96116.91;5053985;28;20228;-67
2023/06/12 10:12:37;;;;;;;1.63;1.08;;;;;;;24.98;40.49;96110.97;5055838;28;20205;-66
2023/06/12 10:15:04;;;;;;;3.22;1.85;;;;;;;25.11;40.02;96107.78;5055548;28;20215;-67
2023/06/12 10:17:32;;;;;;;4.32;1.45;;;;;;;24.94;41.91;96108.00;5052976;28;20193;-67
2023/06/12 10:20:04;;;;;;;2.10;1.67;;;;;;;24.98;39.30;96109.09;5054470;28;20764;-67
2023/06/12 10:22:30;;;;;;;2.65;1.65;;;;;;;24.97;41.36;96112.84;5055090;28;20196;-67
2023/06/12 10:24:58;;;;;;;5.13;2.35;;;;;;;25.07;41.70;96112.09;5055488;28;20204;-65
2023/06/12 10:27:26;;;;;;;2.75;1.67;;;;;;;25.29;40.23;96106.16;5055590;28;20201;-65
2023/06/12 10:29:57;;;;;;;5.60;1.67;;;;;;;25.09;39.57;96105.34;5056009;28;20231;-66
2023/06/12 10:32:24;;;;;;;3.53;1.55;;;;;;;25.09;40.27;96110.75;5055731;28;20232;-67
2023/06/12 10:34:55;;;;;;;2.00;1.42;;;;;;;25.36;39.95;96105.88;5055462;28;20200;-65
2023/06/12 10:37:24;;;;;;;4.53;1.48;;;;;;;25.29;40.73;96103.44;5054550;28;20201;-66
2023/06/12 10:40:07;;;;;;;3.25;1.80;;;;;;;25.72;41.81;96089.34;5055037;28;20232;-66
2023/06/12 10:42:41;;;;;;;2.55;1.45;;;;;;;26.05;40.35;96089.50;5053361;28;20201;-67
2023/06/12 10:45:16;;;;;;;2.08;1.27;;;;;;;25.58;38.77;96096.38;5053215;28;20273;-67
2023/06/12 10:47:44;;;;;;;2.58;1.90;;;;;;;25.55;38.38;96093.44;5054476;28;20925;-66
2023/06/12 10:50:10;;;;;;;2.08;1.50;;;;;;;25.66;39.71;96084.22;5051096;28;20260;-66
2023/06/12 10:52:53;;;;;;;5.35;1.92;;;;;;;25.68;39.63;96092.88;5054406;28;20762;-66
2023/06/12 10:55:22;;;;;;;3.38;1.95;;;;;;;25.78;40.18;96085.56;5055528;28;20204;-66
2023/06/12 10:57:50;;;;;;;2.03;1.58;;;;;;;25.40;39.47;96085.34;5054547;28;20668;-71
2023/06/12 11:00:18;;;;;;;4.60;1.70;;;;;;;25.35;39.45;96086.16;5055611;28;20220;-68
2023/06/12 11:02:47;;;;;;;3.92;2.08;;;;;;;25.47;39.90;96077.78;5054732;28;20208;-67
2023/06/12 11:05:18;;;;;;;2.88;1.88;;;;;;;25.50;39.99;96080.75;5053847;28;20196;-68
2023/06/12 11:07:47;;;;;;;1.90;1.50;;;;;;;25.68;40.91;96071.25;5053862;28;20224;-70
2023/06/12 11:10:15;;;;;;;3.25;1.35;;;;;;;26.09;40.69;96068.94;5054212;28;20505;-70
2023/06/12 11:12:46;;;;;;;3.13;1.83;;;;;;;26.23;38.82;96066.47;5053685;28;20212;-69
2023/06/12 11:15:13;;;;;;;4.35;1.75;;;;;;;25.89;39.69;96076.34;5055495;28;20200;-67
2023/06/12 11:17:39;;;;;;;2.00;1.33;;;;;;;26.27;39.50;96059.41;5054980;28;20208;-70
2023/06/12 11:20:07;;;;;;;1.88;1.42;;;;;;;26.66;39.77;96058.41;5054195;28;20236;-69
2023/06/12 11:22:34;;;;;;;2.17;1.38;;;;;;;26.13;38.32;96055.72;5054944;28;20204;-67
2023/06/12 11:25:02;;;;;;;2.53;1.45;;;;;;;26.08;38.43;96063.84;5055307;28;20226;-68
2023/06/12 11:27:30;;;;;;;1.80;1.40;;;;;;;26.01;38.74;96066.84;5052856;28;20207;-67
2023/06/12 11:29:56;;;;;;;2.20;1.42;;;;;;;26.18;39.67;96066.50;5054176;28;20224;-68
2023/06/12 11:32:23;;;;;;;2.28;1.55;;;;;;;26.31;39.09;96066.72;5054466;28;20203;-67
2023/06/12 11:34:51;;;;;;;3.67;1.45;;;;;;;26.27;39.41;96052.13;5054992;28;20205;-71
2023/06/12 11:37:19;;;;;;;3.13;1.58;;;;;;;26.51;41.16;96044.97;5053994;28;20204;-70